sensor_id;sensor_type;location;lat;lon;timestamp;pressure;altitude;pressure_sealevel;temperature;humidity
36852;BME280;22784;52.476;13.424;2022-09-09T00:03:05;100443.13;;;18.96;100.00
36852;BME280;22784;52.476;13.424;2022-09-09T00:07:21;100450.34;;;18.94;100.00
36852;BME280;22784;52.476;13.424;2022-09-09T00:11:32;100439.41;;;18.81;100.00
36852;BME280;22784;52.476;13.424;2022-09-09T00:15:45;100448.03;;;18.83;100.00
36852;BME280;22784;52.476;13.424;2022-09-09T00:20:01;100448.03;;;18.83;100.00
36852;BME280;22784;52.476;13.424;2022-09-09T00:24:23;100423.22;;;18.61;100.00
36852;BME280;22784;52.476;13.424;2022-09-09T00:28:28;100447.97;;;18.65;100.00
36852;BME280;22784;52.476;13.424;2022-09-09T00:32:35;100385.13;;;18.25;100.00
36852;BME280;22784;52.476;13.424;2022-09-09T00:36:40;100431.66;;;18.58;100.00
36852;BME280;22784;52.476;13.424;2022-09-09T00:40:50;100427.75;;;18.46;100.00
36852;BME280;22784;52.476;13.424;2022-09-09T00:44:58;100441.13;;;18.48;100.00
36852;BME280;22784;52.476;13.424;2022-09-09T00:49:09;100434.97;;;18.44;100.00
36852;BME280;22784;52.476;13.424;2022-09-09T00:53:28;100425.41;;;18.35;100.00
36852;BME280;22784;52.476;13.424;2022-09-09T00:57:40;100439.88;;;18.39;100.00
36852;BME280;22784;52.476;13.424;2022-09-09T01:01:46;100432.50;;;18.36;100.00
36852;BME280;22784;52.476;13.424;2022-09-09T01:06:00;100440.63;;;18.31;100.00
36852;BME280;22784;52.476;13.424;2022-09-09T01:10:08;100438.06;;;18.15;100.00
36852;BME280;22784;52.476;13.424;2022-09-09T01:14:30;100451.59;;;18.13;100.00
36852;BME280;22784;52.476;13.424;2022-09-09T01:18:44;100443.75;;;18.11;100.00
36852;BME280;22784;52.476;13.424;2022-09-09T01:23:00;100432.34;;;18.09;100.00
36852;BME280;22784;52.476;13.424;2022-09-09T01:27:14;100446.53;;;18.20;100.00
36852;BME280;22784;52.476;13.424;2022-09-09T01:31:21;100424.72;;;18.13;100.00
36852;BME280;22784;52.476;13.424;2022-09-09T01:35:34;100440.44;;;18.25;100.00
36852;BME280;22784;52.476;13.424;2022-09-09T01:39:43;100435.47;;;18.20;100.00
36852;BME280;22784;52.476;13.424;2022-09-09T01:43:54;100445.50;;;18.27;100.00
36852;BME280;22784;52.476;13.424;2022-09-09T01:48:00;100441.78;;;18.21;100.00
36852;BME280;22784;52.476;13.424;2022-09-09T01:52:16;100444.09;;;18.22;100.00
36852;BME280;22784;52.476;13.424;2022-09-09T01:56:25;100433.38;;;18.24;100.00
36852;BME280;22784;52.476;13.424;2022-09-09T02:00:44;100437.16;;;18.18;100.00
36852;BME280;22784;52.476;13.424;2022-09-09T02:04:51;100445.88;;;18.07;100.00
36852;BME280;22784;52.476;13.424;2022-09-09T02:09:00;100437.34;;;17.92;100.00
36852;BME280;22784;52.476;13.424;2022-09-09T02:13:10;100436.72;;;17.88;100.00
36852;BME280;22784;52.476;13.424;2022-09-09T02:17:20;100452.72;;;17.93;100.00
36852;BME280;22784;52.476;13.424;2022-09-09T02:21:37;100450.97;;;17.87;100.00
36852;BME280;22784;52.476;13.424;2022-09-09T02:25:41;100427.34;;;17.64;100.00
36852;BME280;22784;52.476;13.424;2022-09-09T02:29:55;100447.16;;;17.84;100.00
36852;BME280;22784;52.476;13.424;2022-09-09T02:34:16;100455.28;;;17.88;100.00
36852;BME280;22784;52.476;13.424;2022-09-09T02:38:26;100429.53;;;17.69;100.00
36852;BME280;22784;52.476;13.424;2022-09-09T02:42:41;100429.72;;;17.75;100.00
36852;BME280;22784;52.476;13.424;2022-09-09T02:47:00;100383.91;;;17.43;100.00
36852;BME280;22784;52.476;13.424;2022-09-09T02:51:14;100446.50;;;17.80;100.00
36852;BME280;22784;52.476;13.424;2022-09-09T02:55:26;100434.03;;;17.76;100.00
36852;BME280;22784;52.476;13.424;2022-09-09T02:59:34;100439.75;;;17.81;100.00
36852;BME280;22784;52.476;13.424;2022-09-09T03:03:41;100412.53;;;17.58;100.00
36852;BME280;22784;52.476;13.424;2022-09-09T03:07:51;100434.88;;;17.64;100.00
36852;BME280;22784;52.476;13.424;2022-09-09T03:11:56;100447.63;;;17.61;100.00
36852;BME280;22784;52.476;13.424;2022-09-09T03:16:02;100438.06;;;17.62;100.00
36852;BME280;22784;52.476;13.424;2022-09-09T03:20:10;100463.81;;;17.72;100.00
36852;BME280;22784;52.476;13.424;2022-09-09T03:24:16;100458.88;;;17.54;100.00
36852;BME280;22784;52.476;13.424;2022-09-09T03:28:20;100471.72;;;17.61;100.00
36852;BME280;22784;52.476;13.424;2022-09-09T03:32:26;100441.72;;;17.37;100.00
36852;BME280;22784;52.476;13.424;2022-09-09T03:36:31;100444.03;;;17.39;100.00
36852;BME280;22784;52.476;13.424;2022-09-09T03:40:38;100470.25;;;17.56;100.00
36852;BME280;22784;52.476;13.424;2022-09-09T03:44:42;100462.53;;;17.51;100.00
36852;BME280;22784;52.476;13.424;2022-09-09T03:48:51;100469.16;;;17.53;100.00
36852;BME280;22784;52.476;13.424;2022-09-09T03:52:55;100477.47;;;17.53;100.00
36852;BME280;22784;52.476;13.424;2022-09-09T03:57:02;100432.28;;;17.26;100.00
36852;BME280;22784;52.476;13.424;2022-09-09T04:01:09;100449.69;;;17.35;100.00
36852;BME280;22784;52.476;13.424;2022-09-09T04:05:14;100448.00;;;17.38;100.00
36852;BME280;22784;52.476;13.424;2022-09-09T04:09:20;100471.00;;;17.56;100.00
36852;BME280;22784;52.476;13.424;2022-09-09T04:13:28;100458.41;;;17.55;100.00
36852;BME280;22784;52.476;13.424;2022-09-09T04:17:32;100446.53;;;17.46;100.00
36852;BME280;22784;52.476;13.424;2022-09-09T04:21:37;100443.44;;;17.44;100.00
36852;BME280;22784;52.476;13.424;2022-09-09T04:25:44;100457.59;;;17.46;100.00
36852;BME280;22784;52.476;13.424;2022-09-09T04:29:51;100477.75;;;17.55;100.00
36852;BME280;22784;52.476;13.424;2022-09-09T04:33:58;100458.31;;;17.37;100.00
36852;BME280;22784;52.476;13.424;2022-09-09T04:38:06;100458.16;;;17.41;100.00
36852;BME280;22784;52.476;13.424;2022-09-09T04:42:10;100491.91;;;17.57;100.00
36852;BME280;22784;52.476;13.424;2022-09-09T04:46:20;100442.06;;;17.27;100.00
36852;BME280;22784;52.476;13.424;2022-09-09T04:50:30;100470.09;;;17.38;100.00
36852;BME280;22784;52.476;13.424;2022-09-09T04:54:34;100451.28;;;17.24;100.00
36852;BME280;22784;52.476;13.424;2022-09-09T04:58:40;100500.53;;;17.59;100.00
36852;BME280;22784;52.476;13.424;2022-09-09T05:02:49;100500.19;;;17.57;100.00
36852;BME280;22784;52.476;13.424;2022-09-09T05:07:06;100504.75;;;17.64;100.00
36852;BME280;22784;52.476;13.424;2022-09-09T05:11:15;100461.69;;;17.41;100.00
36852;BME280;22784;52.476;13.424;2022-09-09T05:15:23;100515.56;;;17.71;100.00
36852;BME280;22784;52.476;13.424;2022-09-09T05:19:27;100506.69;;;17.76;100.00
36852;BME280;22784;52.476;13.424;2022-09-09T05:23:34;100497.47;;;17.79;100.00
36852;BME280;22784;52.476;13.424;2022-09-09T05:27:38;100498.13;;;17.83;100.00
36852;BME280;22784;52.476;13.424;2022-09-09T05:31:42;100502.16;;;17.91;100.00
36852;BME280;22784;52.476;13.424;2022-09-09T05:35:55;100504.47;;;17.93;100.00
36852;BME280;22784;52.476;13.424;2022-09-09T05:40:02;100494.34;;;17.90;100.00
36852;BME280;22784;52.476;13.424;2022-09-09T05:44:05;100492.72;;;18.02;100.00
36852;BME280;22784;52.476;13.424;2022-09-09T05:48:13;100494.75;;;18.10;100.00
36852;BME280;22784;52.476;13.424;2022-09-09T05:52:16;100514.47;;;18.21;100.00
36852;BME280;22784;52.476;13.424;2022-09-09T05:56:25;100526.47;;;18.18;100.00
36852;BME280;22784;52.476;13.424;2022-09-09T06:00:30;100511.91;;;18.27;100.00
36852;BME280;22784;52.476;13.424;2022-09-09T06:04:34;100527.34;;;18.37;100.00
36852;BME280;22784;52.476;13.424;2022-09-09T06:08:40;100529.69;;;18.48;100.00
36852;BME280;22784;52.476;13.424;2022-09-09T06:12:47;100516.22;;;18.59;100.00
36852;BME280;22784;52.476;13.424;2022-09-09T06:16:52;100520.50;;;18.91;100.00
36852;BME280;22784;52.476;13.424;2022-09-09T06:20:59;100529.94;;;19.11;100.00
36852;BME280;22784;52.476;13.424;2022-09-09T06:25:07;100532.53;;;19.15;100.00
36852;BME280;22784;52.476;13.424;2022-09-09T06:29:15;100534.28;;;19.40;100.00
36852;BME280;22784;52.476;13.424;2022-09-09T06:33:20;100522.63;;;19.54;100.00
36852;BME280;22784;52.476;13.424;2022-09-09T06:37:24;100543.09;;;19.56;100.00
36852;BME280;22784;52.476;13.424;2022-09-09T06:41:30;100490.66;;;19.04;100.00
36852;BME280;22784;52.476;13.424;2022-09-09T06:45:39;100546.91;;;19.41;100.00
36852;BME280;22784;52.476;13.424;2022-09-09T06:49:43;100520.59;;;19.45;100.00
36852;BME280;22784;52.476;13.424;2022-09-09T06:53:49;100536.19;;;19.70;100.00
36852;BME280;22784;52.476;13.424;2022-09-09T06:57:53;100532.75;;;19.93;100.00
36852;BME280;22784;52.476;13.424;2022-09-09T07:02:00;100529.47;;;20.22;100.00
36852;BME280;22784;52.476;13.424;2022-09-09T07:06:06;100523.09;;;20.49;100.00
36852;BME280;22784;52.476;13.424;2022-09-09T07:10:10;100532.28;;;20.73;100.00
36852;BME280;22784;52.476;13.424;2022-09-09T07:14:15;100541.91;;;20.87;100.00
36852;BME280;22784;52.476;13.424;2022-09-09T07:18:25;100539.09;;;20.96;100.00
36852;BME280;22784;52.476;13.424;2022-09-09T07:22:29;100501.47;;;20.86;100.00
36852;BME280;22784;52.476;13.424;2022-09-09T07:26:34;100511.66;;;20.89;100.00
36852;BME280;22784;52.476;13.424;2022-09-09T07:30:37;100551.88;;;21.27;100.00
36852;BME280;22784;52.476;13.424;2022-09-09T07:34:44;100559.84;;;21.43;100.00
36852;BME280;22784;52.476;13.424;2022-09-09T07:38:50;100548.84;;;21.63;100.00
36852;BME280;22784;52.476;13.424;2022-09-09T07:42:54;100547.44;;;21.68;100.00
36852;BME280;22784;52.476;13.424;2022-09-09T07:46:58;100552.25;;;21.82;100.00
36852;BME280;22784;52.476;13.424;2022-09-09T07:51:12;100523.81;;;21.63;100.00
36852;BME280;22784;52.476;13.424;2022-09-09T07:55:18;100539.38;;;21.70;100.00
36852;BME280;22784;52.476;13.424;2022-09-09T07:59:22;100559.75;;;21.90;100.00
36852;BME280;22784;52.476;13.424;2022-09-09T08:03:27;100560.94;;;21.98;100.00
36852;BME280;22784;52.476;13.424;2022-09-09T08:07:33;100552.91;;;22.00;100.00
36852;BME280;22784;52.476;13.424;2022-09-09T08:11:39;100541.06;;;21.91;100.00
36852;BME280;22784;52.476;13.424;2022-09-09T08:15:43;100574.69;;;22.02;100.00
36852;BME280;22784;52.476;13.424;2022-09-09T08:19:47;100577.84;;;21.95;100.00
36852;BME280;22784;52.476;13.424;2022-09-09T08:24:00;100577.50;;;21.78;100.00
36852;BME280;22784;52.476;13.424;2022-09-09T08:28:06;100580.06;;;21.67;100.00
36852;BME280;22784;52.476;13.424;2022-09-09T08:32:10;100572.28;;;21.71;100.00
36852;BME280;22784;52.476;13.424;2022-09-09T08:36:16;100572.41;;;21.77;100.00
36852;BME280;22784;52.476;13.424;2022-09-09T08:40:29;100576.41;;;21.76;100.00
36852;BME280;22784;52.476;13.424;2022-09-09T08:44:46;100542.59;;;21.53;95.19
36852;BME280;22784;52.476;13.424;2022-09-09T08:48:58;100564.13;;;21.68;100.00
36852;BME280;22784;52.476;13.424;2022-09-09T08:53:11;100538.63;;;21.45;100.00
36852;BME280;22784;52.476;13.424;2022-09-09T08:57:26;100581.56;;;21.68;100.00
36852;BME280;22784;52.476;13.424;2022-09-09T09:01:52;100575.25;;;21.68;100.00
36852;BME280;22784;52.476;13.424;2022-09-09T09:06:20;100552.03;;;21.71;100.00
36852;BME280;22784;52.476;13.424;2022-09-09T09:10:42;100546.44;;;21.94;100.00
36852;BME280;22784;52.476;13.424;2022-09-09T09:14:59;100579.38;;;22.69;100.00
36852;BME280;22784;52.476;13.424;2022-09-09T09:19:03;100569.59;;;22.74;98.54
36852;BME280;22784;52.476;13.424;2022-09-09T09:23:13;100531.19;;;22.49;94.39
36852;BME280;22784;52.476;13.424;2022-09-09T09:27:28;100585.81;;;22.90;96.03
36852;BME280;22784;52.476;13.424;2022-09-09T09:31:36;100584.88;;;23.13;98.32
36852;BME280;22784;52.476;13.424;2022-09-09T09:35:40;100561.81;;;23.13;93.74
36852;BME280;22784;52.476;13.424;2022-09-09T09:39:46;100575.56;;;23.37;91.17
36852;BME280;22784;52.476;13.424;2022-09-09T09:43:56;100571.94;;;23.31;94.34
36852;BME280;22784;52.476;13.424;2022-09-09T09:48:09;100521.31;;;22.97;88.00
36852;BME280;22784;52.476;13.424;2022-09-09T09:52:17;100563.91;;;23.18;91.83
36852;BME280;22784;52.476;13.424;2022-09-09T09:56:28;100581.63;;;23.35;91.42
36852;BME280;22784;52.476;13.424;2022-09-09T10:00:34;100577.53;;;23.51;90.14
36852;BME280;22784;52.476;13.424;2022-09-09T10:04:45;100554.56;;;23.41;78.47
36852;BME280;22784;52.476;13.424;2022-09-09T10:08:50;100577.41;;;23.60;89.96
36852;BME280;22784;52.476;13.424;2022-09-09T10:12:59;100581.38;;;23.53;88.12
36852;BME280;22784;52.476;13.424;2022-09-09T10:17:16;100581.59;;;23.70;86.17
36852;BME280;22784;52.476;13.424;2022-09-09T10:21:44;100554.44;;;23.71;86.10
36852;BME280;22784;52.476;13.424;2022-09-09T10:26:12;100583.47;;;24.04;77.39
36852;BME280;22784;52.476;13.424;2022-09-09T10:30:23;100578.16;;;24.27;84.60
36852;BME280;22784;52.476;13.424;2022-09-09T10:34:45;100583.19;;;24.23;76.77
36852;BME280;22784;52.476;13.424;2022-09-09T10:38:59;100569.50;;;24.25;83.78
36852;BME280;22784;52.476;13.424;2022-09-09T10:43:15;100576.06;;;24.47;78.87
36852;BME280;22784;52.476;13.424;2022-09-09T10:47:49;100574.47;;;24.41;76.89
36852;BME280;22784;52.476;13.424;2022-09-09T10:52:04;100545.91;;;24.26;72.09
36852;BME280;22784;52.476;13.424;2022-09-09T10:56:16;100559.00;;;24.77;79.11
36852;BME280;22784;52.476;13.424;2022-09-09T11:00:23;100581.81;;;25.01;75.09
36852;BME280;22784;52.476;13.424;2022-09-09T11:04:32;100572.88;;;24.92;72.66
36852;BME280;22784;52.476;13.424;2022-09-09T11:08:39;100577.78;;;25.08;67.82
36852;BME280;22784;52.476;13.424;2022-09-09T11:12:47;100570.66;;;25.07;67.06
36852;BME280;22784;52.476;13.424;2022-09-09T11:16:56;100550.59;;;25.08;69.55
36852;BME280;22784;52.476;13.424;2022-09-09T11:21:12;100533.66;;;25.28;65.10
36852;BME280;22784;52.476;13.424;2022-09-09T11:25:22;100563.19;;;26.17;69.26
36852;BME280;22784;52.476;13.424;2022-09-09T11:29:47;100542.25;;;25.84;57.86
36852;BME280;22784;52.476;13.424;2022-09-09T11:34:00;100563.97;;;26.23;55.01
36852;BME280;22784;52.476;13.424;2022-09-09T11:38:25;100548.22;;;26.36;57.22
36852;BME280;22784;52.476;13.424;2022-09-09T11:42:30;100555.84;;;26.25;52.85
36852;BME280;22784;52.476;13.424;2022-09-09T11:46:38;100559.78;;;25.68;59.03
36852;BME280;22784;52.476;13.424;2022-09-09T11:50:42;100540.63;;;25.50;52.49
36852;BME280;22784;52.476;13.424;2022-09-09T11:54:47;100555.19;;;25.71;61.46
36852;BME280;22784;52.476;13.424;2022-09-09T11:58:58;100540.00;;;25.29;55.50
36852;BME280;22784;52.476;13.424;2022-09-09T12:03:31;100507.56;;;25.00;56.86
36852;BME280;22784;52.476;13.424;2022-09-09T12:07:40;100537.69;;;25.92;58.14
36852;BME280;22784;52.476;13.424;2022-09-09T12:11:45;100534.19;;;26.64;52.06
36852;BME280;22784;52.476;13.424;2022-09-09T12:15:52;100519.25;;;27.25;53.79
36852;BME280;22784;52.476;13.424;2022-09-09T12:20:08;100531.44;;;27.96;49.39
36852;BME280;22784;52.476;13.424;2022-09-09T12:24:20;100500.75;;;27.98;50.24
36852;BME280;22784;52.476;13.424;2022-09-09T12:28:47;100513.31;;;27.92;45.00
36852;BME280;22784;52.476;13.424;2022-09-09T12:33:00;100516.25;;;27.69;49.49
36852;BME280;22784;52.476;13.424;2022-09-09T12:37:14;100513.31;;;27.51;47.49
36852;BME280;22784;52.476;13.424;2022-09-09T12:41:20;100511.91;;;27.74;49.49
36852;BME280;22784;52.476;13.424;2022-09-09T12:45:26;100484.72;;;27.47;47.66
36852;BME280;22784;52.476;13.424;2022-09-09T12:49:32;100501.66;;;27.24;47.03
36852;BME280;22784;52.476;13.424;2022-09-09T12:53:41;100508.91;;;26.98;49.09
36852;BME280;22784;52.476;13.424;2022-09-09T12:57:46;100504.59;;;26.69;50.06
36852;BME280;22784;52.476;13.424;2022-09-09T13:01:55;100494.19;;;26.41;47.59
36852;BME280;22784;52.476;13.424;2022-09-09T13:06:11;100509.47;;;26.40;51.07
36852;BME280;22784;52.476;13.424;2022-09-09T13:10:22;100502.09;;;26.15;48.20
36852;BME280;22784;52.476;13.424;2022-09-09T13:14:29;100526.25;;;26.07;49.79
36852;BME280;22784;52.476;13.424;2022-09-09T13:18:40;100517.09;;;25.95;51.56
36852;BME280;22784;52.476;13.424;2022-09-09T13:22:46;100508.16;;;25.86;48.74
36852;BME280;22784;52.476;13.424;2022-09-09T13:26:58;100510.19;;;25.85;50.18
36852;BME280;22784;52.476;13.424;2022-09-09T13:31:04;100488.03;;;25.87;52.15
36852;BME280;22784;52.476;13.424;2022-09-09T13:35:23;100495.19;;;26.05;49.63
36852;BME280;22784;52.476;13.424;2022-09-09T13:39:28;100485.00;;;26.02;51.00
36852;BME280;22784;52.476;13.424;2022-09-09T13:43:36;100486.78;;;25.99;47.57
36852;BME280;22784;52.476;13.424;2022-09-09T13:47:41;100457.22;;;25.71;49.50
36852;BME280;22784;52.476;13.424;2022-09-09T13:51:47;100475.34;;;26.03;49.58
36852;BME280;22784;52.476;13.424;2022-09-09T13:55:53;100482.97;;;26.14;46.52
36852;BME280;22784;52.476;13.424;2022-09-09T14:00:00;100483.75;;;26.03;45.38
36852;BME280;22784;52.476;13.424;2022-09-09T14:04:04;100490.06;;;25.81;48.50
36852;BME280;22784;52.476;13.424;2022-09-09T14:08:22;100503.03;;;25.62;48.37
36852;BME280;22784;52.476;13.424;2022-09-09T14:12:27;100479.50;;;25.37;47.99
36852;BME280;22784;52.476;13.424;2022-09-09T14:16:33;100473.38;;;25.33;51.40
36852;BME280;22784;52.476;13.424;2022-09-09T14:20:38;100492.75;;;25.37;50.76
36852;BME280;22784;52.476;13.424;2022-09-09T14:24:50;100478.25;;;25.33;51.08
36852;BME280;22784;52.476;13.424;2022-09-09T14:28:55;100409.56;;;24.72;51.88
36852;BME280;22784;52.476;13.424;2022-09-09T14:33:03;100449.59;;;24.95;53.67
36852;BME280;22784;52.476;13.424;2022-09-09T14:37:07;100485.63;;;25.41;50.70
36852;BME280;22784;52.476;13.424;2022-09-09T14:41:12;100483.84;;;25.38;48.89
36852;BME280;22784;52.476;13.424;2022-09-09T14:45:17;100456.53;;;25.11;50.46
36852;BME280;22784;52.476;13.424;2022-09-09T14:49:24;100466.88;;;24.94;51.13
36852;BME280;22784;52.476;13.424;2022-09-09T14:53:28;100490.06;;;25.05;54.64
36852;BME280;22784;52.476;13.424;2022-09-09T14:57:31;100475.31;;;25.05;54.18
36852;BME280;22784;52.476;13.424;2022-09-09T15:01:39;100450.03;;;24.88;54.94
36852;BME280;22784;52.476;13.424;2022-09-09T15:05:45;100498.00;;;25.18;54.06
36852;BME280;22784;52.476;13.424;2022-09-09T15:09:49;100404.41;;;24.54;53.80
36852;BME280;22784;52.476;13.424;2022-09-09T15:13:54;100463.88;;;25.03;54.56
36852;BME280;22784;52.476;13.424;2022-09-09T15:17:59;100452.13;;;25.63;49.37
36852;BME280;22784;52.476;13.424;2022-09-09T15:22:05;100475.81;;;27.43;45.48
36852;BME280;22784;52.476;13.424;2022-09-09T15:26:10;100459.44;;;27.52;42.37
36852;BME280;22784;52.476;13.424;2022-09-09T15:30:14;100460.56;;;27.33;42.09
36852;BME280;22784;52.476;13.424;2022-09-09T15:34:18;100473.19;;;27.09;40.28
36852;BME280;22784;52.476;13.424;2022-09-09T15:38:24;100431.28;;;26.31;42.08
36852;BME280;22784;52.476;13.424;2022-09-09T15:42:28;100461.34;;;26.20;42.47
36852;BME280;22784;52.476;13.424;2022-09-09T15:46:33;100457.00;;;25.96;43.73
36852;BME280;22784;52.476;13.424;2022-09-09T15:50:37;100430.00;;;25.77;44.85
36852;BME280;22784;52.476;13.424;2022-09-09T15:54:45;100396.38;;;25.54;44.84
36852;BME280;22784;52.476;13.424;2022-09-09T15:58:51;100438.13;;;25.75;43.22
36852;BME280;22784;52.476;13.424;2022-09-09T16:02:54;100448.81;;;25.71;43.09
36852;BME280;22784;52.476;13.424;2022-09-09T16:07:00;100433.72;;;25.35;42.65
36852;BME280;22784;52.476;13.424;2022-09-09T16:11:08;100466.56;;;25.51;44.81
36852;BME280;22784;52.476;13.424;2022-09-09T16:15:13;100459.69;;;25.41;45.31
36852;BME280;22784;52.476;13.424;2022-09-09T16:19:16;100487.94;;;25.43;43.98
36852;BME280;22784;52.476;13.424;2022-09-09T16:23:20;100491.94;;;25.25;45.21
36852;BME280;22784;52.476;13.424;2022-09-09T16:27:29;100500.78;;;25.12;44.79
36852;BME280;22784;52.476;13.424;2022-09-09T16:31:33;100497.41;;;24.97;45.00
36852;BME280;22784;52.476;13.424;2022-09-09T16:35:37;100450.13;;;24.57;45.77
36852;BME280;22784;52.476;13.424;2022-09-09T16:39:42;100498.28;;;24.77;47.70
36852;BME280;22784;52.476;13.424;2022-09-09T16:43:53;100428.56;;;24.20;46.41
36852;BME280;22784;52.476;13.424;2022-09-09T16:48:03;100459.13;;;24.35;46.50
36852;BME280;22784;52.476;13.424;2022-09-09T16:52:09;100486.97;;;24.55;47.15
36852;BME280;22784;52.476;13.424;2022-09-09T16:56:15;100467.75;;;24.31;45.79
36852;BME280;22784;52.476;13.424;2022-09-09T17:00:22;100422.47;;;23.90;47.45
36852;BME280;22784;52.476;13.424;2022-09-09T17:04:27;100354.69;;;23.33;50.59
36852;BME280;22784;52.476;13.424;2022-09-09T17:08:31;100463.78;;;23.86;52.97
36852;BME280;22784;52.476;13.424;2022-09-09T17:12:35;100456.72;;;23.65;54.40
36852;BME280;22784;52.476;13.424;2022-09-09T17:16:41;100469.63;;;23.62;56.16
36852;BME280;22784;52.476;13.424;2022-09-09T17:20:47;100495.25;;;23.61;57.12
36852;BME280;22784;52.476;13.424;2022-09-09T17:24:50;100493.06;;;23.50;56.99
36852;BME280;22784;52.476;13.424;2022-09-09T17:28:55;100492.88;;;23.34;54.71
36852;BME280;22784;52.476;13.424;2022-09-09T17:33:01;100478.47;;;23.15;52.96
36852;BME280;22784;52.476;13.424;2022-09-09T17:37:05;100471.28;;;23.08;51.26
36852;BME280;22784;52.476;13.424;2022-09-09T17:41:11;100476.44;;;22.95;50.49
36852;BME280;22784;52.476;13.424;2022-09-09T17:45:15;100479.75;;;22.79;49.76
36852;BME280;22784;52.476;13.424;2022-09-09T17:49:22;100476.78;;;22.68;50.10
36852;BME280;22784;52.476;13.424;2022-09-09T17:53:25;100494.25;;;22.68;50.21
36852;BME280;22784;52.476;13.424;2022-09-09T17:57:29;100495.16;;;22.60;51.36
36852;BME280;22784;52.476;13.424;2022-09-09T18:01:35;100496.03;;;22.51;50.66
36852;BME280;22784;52.476;13.424;2022-09-09T18:05:41;100494.53;;;22.35;51.46
36852;BME280;22784;52.476;13.424;2022-09-09T18:09:45;100486.84;;;22.16;52.87
36852;BME280;22784;52.476;13.424;2022-09-09T18:13:50;100503.47;;;22.10;53.50
36852;BME280;22784;52.476;13.424;2022-09-09T18:17:54;100482.31;;;21.89;55.37
36852;BME280;22784;52.476;13.424;2022-09-09T18:22:05;100511.06;;;21.95;56.11
36852;BME280;22784;52.476;13.424;2022-09-09T18:26:10;100507.28;;;21.83;57.36
36852;BME280;22784;52.476;13.424;2022-09-09T18:30:14;100511.94;;;21.62;58.52
36852;BME280;22784;52.476;13.424;2022-09-09T18:34:20;100536.50;;;21.64;59.49
36852;BME280;22784;52.476;13.424;2022-09-09T18:38:27;100548.34;;;21.50;61.14
36852;BME280;22784;52.476;13.424;2022-09-09T18:42:31;100519.38;;;21.18;62.97
36852;BME280;22784;52.476;13.424;2022-09-09T18:46:36;100562.66;;;21.34;64.16
36852;BME280;22784;52.476;13.424;2022-09-09T18:50:40;100561.31;;;21.29;65.44
36852;BME280;22784;52.476;13.424;2022-09-09T18:54:47;100565.84;;;21.17;65.38
36852;BME280;22784;52.476;13.424;2022-09-09T18:58:51;100572.81;;;21.13;66.00
36852;BME280;22784;52.476;13.424;2022-09-09T19:02:55;100575.38;;;20.93;65.95
36852;BME280;22784;52.476;13.424;2022-09-09T19:06:58;100579.63;;;20.79;67.06
36852;BME280;22784;52.476;13.424;2022-09-09T19:11:06;100564.38;;;20.65;66.57
36852;BME280;22784;52.476;13.424;2022-09-09T19:15:09;100536.69;;;20.47;66.50
36852;BME280;22784;52.476;13.424;2022-09-09T19:19:16;100570.53;;;20.69;65.64
36852;BME280;22784;52.476;13.424;2022-09-09T19:23:19;100575.03;;;20.67;66.44
36852;BME280;22784;52.476;13.424;2022-09-09T19:27:31;100580.72;;;20.72;65.68
36852;BME280;22784;52.476;13.424;2022-09-09T19:31:35;100543.59;;;20.52;66.10
36852;BME280;22784;52.476;13.424;2022-09-09T19:35:40;100585.63;;;20.77;64.86
36852;BME280;22784;52.476;13.424;2022-09-09T19:39:44;100589.50;;;20.71;63.92
36852;BME280;22784;52.476;13.424;2022-09-09T19:43:50;100583.84;;;20.56;64.97
36852;BME280;22784;52.476;13.424;2022-09-09T19:47:54;100601.44;;;20.53;66.02
36852;BME280;22784;52.476;13.424;2022-09-09T19:51:57;100599.31;;;20.39;65.93
36852;BME280;22784;52.476;13.424;2022-09-09T19:56:02;100572.97;;;20.16;66.86
36852;BME280;22784;52.476;13.424;2022-09-09T20:00:09;100592.53;;;20.31;67.55
36852;BME280;22784;52.476;13.424;2022-09-09T20:04:14;100593.94;;;20.35;67.90
36852;BME280;22784;52.476;13.424;2022-09-09T20:08:18;100600.72;;;20.25;66.64
36852;BME280;22784;52.476;13.424;2022-09-09T20:12:23;100586.38;;;20.18;66.88
36852;BME280;22784;52.476;13.424;2022-09-09T20:16:30;100590.22;;;20.11;66.39
36852;BME280;22784;52.476;13.424;2022-09-09T20:20:39;100596.25;;;20.00;66.65
36852;BME280;22784;52.476;13.424;2022-09-09T20:24:43;100592.53;;;19.85;67.97
36852;BME280;22784;52.476;13.424;2022-09-09T20:28:47;100603.34;;;19.83;68.05
36852;BME280;22784;52.476;13.424;2022-09-09T20:32:54;100606.59;;;19.82;69.47
36852;BME280;22784;52.476;13.424;2022-09-09T20:36:58;100596.41;;;19.70;69.36
36852;BME280;22784;52.476;13.424;2022-09-09T20:41:02;100595.47;;;19.63;70.28
36852;BME280;22784;52.476;13.424;2022-09-09T20:45:07;100580.22;;;19.59;71.10
36852;BME280;22784;52.476;13.424;2022-09-09T20:49:19;100550.78;;;19.43;70.21
36852;BME280;22784;52.476;13.424;2022-09-09T20:53:26;100564.97;;;19.45;70.89
36852;BME280;22784;52.476;13.424;2022-09-09T20:57:30;100561.06;;;19.34;70.99
36852;BME280;22784;52.476;13.424;2022-09-09T21:01:34;100557.06;;;19.35;71.06
36852;BME280;22784;52.476;13.424;2022-09-09T21:05:40;100552.75;;;19.34;71.76
36852;BME280;22784;52.476;13.424;2022-09-09T21:09:44;100525.16;;;19.21;71.28
36852;BME280;22784;52.476;13.424;2022-09-09T21:13:47;100550.28;;;19.36;71.35